New Orleans NAS, Louisiana
Current Conditions -  °F | °C
As of 1:55 AM on Tuesday 21 Oct 2014 (Local Time) from KNBG Reporting Station
Clear Clear  
Wind Chill: 56°   Ceiling: Unl
Heat Index: 56°   Visibility: NA
Dew Point: 53°   Wind: 0mph
Humidity: 90%   Direction: NA
Pressure: 30"   Gusts: NA
Location:  29.83°N, 90.02°W
Report Text: KNBG 210655Z AUTO 00000KT CLR 13/12 A3000 RMK AO2 SLP158 T01330117 TSNO $
Loading
Personal Weather Stations






























Interactive Weather Map
Tropical Storm Tracking
New forecast layout! Learn more

10-Day Weather Forecast

Advertisements
Track Severe Weather on mobile